KSCH/SCH METAR and TAF weather

Enter ICAO airport designator
Station Type Date Time Source
KSCH METAR 2019/08/24 21:45 UTC NOAA

KSCH 242145Z 04005KT 15SM SCT060 23/12 A3022


Station Type Date Time Source
KSCH Decoded METAR 2019/08/24 21:45 UTC NOAA

Station name not available
Aug 24, 2019 - 05:45 PM EDT / 2019.08.24 2145 UTC
Wind: from the NE (040 degrees) at 6 MPH (5 KT):0
Visibility: 15 mile(s):0
Sky conditions: partly cloudy
Temperature: 73 F (23 C)
Dew Point: 53 F (12 C)
Relative Humidity: 49%
Pressure (altimeter): 30.22 in. Hg (1023 hPa)
ob: KSCH 242145Z 04005KT 15SM SCT060 23/12 A3022
cycle: 22

Station Type Date Time Source
KSCH TAF UTC NOAA

Error!

Example: see airport list